Time;durP1;ratioP1;P1;durP2;ratioP2;P2;SDS_P1;SDS_P2;PMS_P1;PMS_P2;Temp;Humidity;BMP_temperature;BMP_pressure;BME280_temperature;BME280_humidity;BME280_pressure;Samples;Min_cycle;Max_cycle;Signal;HPM_P1;HPM_P2
2022/11/19 00:01:23;;;;;;;;;;;;;;;;;;5057924;28;19925;-49
2022/11/19 00:03:50;;;;;;;;;;;;;;;;;;5051038;28;20048;-54
2022/11/19 00:06:17;;;;;;;;;;;;;;;;;;5057383;28;19925;-49
2022/11/19 00:08:44;;;;;;;;;;;;;;;;;;5058221;28;19932;-52
2022/11/19 00:11:11;;;;;;;;;;;;;;;;;;5058024;28;19928;-50
2022/11/19 00:13:37;;;;;;;;;;;;;;;;;;5058681;28;19990;-52
2022/11/19 00:16:04;;;;;;;;;;;;;;;;;;5058242;28;20386;-50
2022/11/19 00:18:32;;;;;;;;;;;;;;;;;;5061359;28;19971;-50
2022/11/19 00:21:04;;;;;;;;;;;;;;;;;;5061843;28;19924;-50
2022/11/19 00:23:30;;;;;;;;;;;;;;;;;;5062288;28;19931;-53
2022/11/19 00:25:57;;;;;;;;;;;;;;;;;;5061369;28;20016;-49
2022/11/19 00:28:23;;;;;;;;;;;;;;;;;;5062702;28;19925;-49
2022/11/19 00:30:50;;;;;;;;;;;;;;;;;;5059840;28;19929;-51
2022/11/19 00:33:16;;;;;;;;;;;;;;;;;;5059862;28;19925;-53
2022/11/19 00:35:44;;;;;;;;;;;;;;;;;;5058754;28;20078;-50
2022/11/19 00:38:11;;;;;;;;;;;;;;;;;;5059140;28;19928;-52
2022/11/19 00:40:37;;;;;;;;;;;;;;;;;;5060231;28;19948;-50
2022/11/19 00:45:49;;;;;;;;;;;;;;;;;;5060206;28;19943;-50
2022/11/19 00:48:15;;;;;;;;;;;;;;;;;;5059288;28;20354;-53
2022/11/19 00:50:42;;;;;;;;;;;;;;;;;;5059836;28;20389;-49
2022/11/19 00:53:10;;;;;;;;;;;;;;;;;;5059715;28;19924;-51
2022/11/19 00:55:37;;;;;;;;;;;;;;;;;;5059444;28;19925;-50
2022/11/19 00:58:04;;;;;;;;;;;;;;;;;;5059168;28;20404;-50
2022/11/19 01:00:30;;;;;;;;;;;;;;;;;;5059518;28;19960;-49
2022/11/19 01:02:57;;;;;;;;;;;;;;;;;;5058429;28;19928;-49
2022/11/19 01:05:24;;;;;;;;;;;;;;;;;;5058538;28;19951;-49
2022/11/19 01:07:52;;;;;;;;;;;;;;;;;;5058479;28;20397;-51
2022/11/19 01:10:20;;;;;;;;;;;;;;;;;;5058064;28;19924;-49
2022/11/19 01:15:31;;;;;;;;;;;;;;;;;;5058986;28;20007;-53
2022/11/19 01:17:57;;;;;;;;;;;;;;;;;;5059764;28;19979;-50
2022/11/19 01:20:24;;;;;;;;;;;;;;;;;;5058956;28;19929;-53
2022/11/19 01:22:50;;;;;;;;;;;;;;;;;;5058947;28;20301;-53
2022/11/19 01:25:17;;;;;;;;;;;;;;;;;;5059347;28;19933;-52
2022/11/19 01:27:45;;;;;;;;;;;;;;;;;;5059106;28;19975;-51
2022/11/19 01:30:12;;;;;;;;;;;;;;;;;;5057957;28;20007;-49
2022/11/19 01:32:39;;;;;;;;;;;;;;;;;;5058851;28;20340;-52
2022/11/19 01:35:06;;;;;;;;;;;;;;;;;;5058275;28;20334;-50
2022/11/19 01:37:32;;;;;;;;;;;;;;;;;;5057292;28;19925;-48
2022/11/19 01:39:59;;;;;;;;;;;;;;;;;;5058188;28;19928;-53
2022/11/19 01:45:17;;;;;;;;;;;;;;;;;;5058155;28;19932;-51
2022/11/19 01:47:44;;;;;;;;;;;;;;;;;;5057487;28;20513;-52
2022/11/19 01:50:10;;;;;;;;;;;;;;;;;;5058860;28;19932;-50
2022/11/19 01:52:38;;;;;;;;;;;;;;;;;;5057190;28;19939;-50
2022/11/19 01:55:06;;;;;;;;;;;;;;;;;;5058287;28;19988;-50
2022/11/19 01:57:33;;;;;;;;;;;;;;;;;;5057883;28;19925;-52
2022/11/19 01:59:59;;;;;;;;;;;;;;;;;;5058217;28;19951;-50
2022/11/19 02:02:27;;;;;;;;;;;;;;;;;;5059061;28;19931;-52
2022/11/19 02:04:56;;;;;;;;;;;;;;;;;;5058117;28;20358;-51
2022/11/19 02:07:27;;;;;;;;;;;;;;;;;;5058312;28;19939;-51
2022/11/19 02:09:54;;;;;;;;;;;;;;;;;;5058893;28;19925;-54
2022/11/19 02:12:27;;;;;;;;;;;;;;;;;;5059568;28;20362;-49
2022/11/19 02:15:03;;;;;;;;;;;;;;;;;;5058216;28;20116;-50
2022/11/19 02:17:37;;;;;;;;;;;;;;;;;;5057768;28;20428;-49
2022/11/19 02:20:34;;;;;;;;;;;;;;;;;;5057962;28;19928;-50
2022/11/19 02:23:15;;;;;;;;;;;;;;;;;;5055450;28;19936;-54
2022/11/19 02:25:53;;;;;;;;;;;;;;;;;;5041955;28;19933;-50
2022/11/19 02:28:28;;;;;;;;;;;;;;;;;;5057949;28;19925;-50
2022/11/19 02:30:59;;;;;;;;;;;;;;;;;;5058533;28;19924;-53
2022/11/19 02:33:27;;;;;;;;;;;;;;;;;;5057443;28;20286;-53
2022/11/19 02:35:58;;;;;;;;;;;;;;;;;;5057609;28;19959;-53
2022/11/19 02:38:28;;;;;;;;;;;;;;;;;;5058716;28;20401;-52
2022/11/19 02:40:56;;;;;;;;;;;;;;;;;;5057443;28;19935;-52
2022/11/19 02:46:27;;;;;;;;;;;;;;;;;;5056892;28;19924;-53
2022/11/19 02:48:54;;;;;;;;;;;;;;;;;;5057680;28;20332;-53
2022/11/19 02:51:21;;;;;;;;;;;;;;;;;;5058329;28;19925;-52
2022/11/19 02:53:47;;;;;;;;;;;;;;;;;;5057946;28;19994;-51
2022/11/19 02:56:16;;;;;;;;;;;;;;;;;;5057902;28;19934;-52
2022/11/19 03:04:32;;;;;;;;;;;;;;;;;;5056089;28;20305;-54
2022/11/19 03:07:01;;;;;;;;;;;;;;;;;;5056684;28;19979;-53
2022/11/19 03:09:28;;;;;;;;;;;;;;;;;;5056804;28;20346;-50
2022/11/19 03:11:58;;;;;;;;;;;;;;;;;;5057920;28;20378;-51
2022/11/19 03:17:14;;;;;;;;;;;;;;;;;;5057576;28;19967;-53
2022/11/19 03:19:44;;;;;;;;;;;;;;;;;;5058573;28;19932;-52
2022/11/19 03:22:15;;;;;;;;;;;;;;;;;;5057163;28;19925;-52
2022/11/19 03:24:44;;;;;;;;;;;;;;;;;;5057731;28;19924;-54
2022/11/19 03:27:13;;;;;;;;;;;;;;;;;;5057363;28;19931;-53
2022/11/19 03:29:42;;;;;;;;;;;;;;;;;;5058003;28;19932;-53
2022/11/19 03:32:11;;;;;;;;;;;;;;;;;;5057453;28;19925;-49
2022/11/19 03:34:40;;;;;;;;;;;;;;;;;;5055899;28;19925;-51
2022/11/19 03:37:07;;;;;;;;;;;;;;;;;;5056645;28;19924;-52
2022/11/19 03:39:35;;;;;;;;;;;;;;;;;;5056950;28;19933;-53
2022/11/19 03:42:03;;;;;;;;;;;;;;;;;;5056626;28;19933;-53
2022/11/19 03:44:33;;;;;;;;;;;;;;;;;;5057359;28;19979;-54
2022/11/19 03:47:01;;;;;;;;;;;;;;;;;;5056518;28;19932;-50
2022/11/19 03:49:30;;;;;;;;;;;;;;;;;;5056424;28;19971;-50
2022/11/19 03:51:59;;;;;;;;;;;;;;;;;;5055776;28;20340;-49
2022/11/19 03:54:26;;;;;;;;;;;;;;;;;;5061244;28;19925;-49
2022/11/19 03:56:54;;;;;;;;;;;;;;;;;;5061029;28;19955;-54
2022/11/19 03:59:20;;;;;;;;;;;;;;;;;;5061670;28;19971;-52
2022/11/19 04:01:48;;;;;;;;;;;;;;;;;;5061525;28;19987;-49
2022/11/19 04:07:00;;;;;;;;;;;;;;;;;;5060061;28;19968;-55
2022/11/19 04:09:26;;;;;;;;;;;;;;;;;;5061137;28;19925;-53
2022/11/19 04:11:53;;;;;;;;;;;;;;;;;;5061378;28;19929;-51
2022/11/19 04:14:19;;;;;;;;;;;;;;;;;;5059907;28;19976;-52
2022/11/19 04:16:46;;;;;;;;;;;;;;;;;;5059683;28;19928;-50
2022/11/19 04:19:12;;;;;;;;;;;;;;;;;;5060032;28;19925;-50
2022/11/19 04:21:39;;;;;;;;;;;;;;;;;;5060068;28;19924;-54
2022/11/19 04:24:07;;;;;;;;;;;;;;;;;;5060095;28;19990;-50
2022/11/19 04:26:34;;;;;;;;;;;;;;;;;;5059598;28;19986;-52
2022/11/19 04:29:01;;;;;;;;;;;;;;;;;;5059652;28;19932;-50
2022/11/19 04:31:27;;;;;;;;;;;;;;;;;;5060259;28;19925;-53
2022/11/19 04:33:54;;;;;;;;;;;;;;;;;;5060497;28;19929;-52
2022/11/19 04:36:20;;;;;;;;;;;;;;;;;;5059968;28;19925;-52
2022/11/19 04:38:47;;;;;;;;;;;;;;;;;;5060679;28;19948;-49
2022/11/19 04:41:15;;;;;;;;;;;;;;;;;;5059097;28;19960;-48
2022/11/19 04:43:41;;;;;;;;;;;;;;;;;;5060313;28;19962;-50
2022/11/19 04:46:08;;;;;;;;;;;;;;;;;;5060086;28;19933;-53
2022/11/19 04:48:34;;;;;;;;;;;;;;;;;;5060036;28;19925;-53
2022/11/19 04:51:01;;;;;;;;;;;;;;;;;;5060216;28;19940;-52
2022/11/19 04:53:27;;;;;;;;;;;;;;;;;;5060271;28;19979;-53
2022/11/19 04:55:54;;;;;;;;;;;;;;;;;;5060701;28;19931;-53
2022/11/19 04:58:22;;;;;;;;;;;;;;;;;;5060845;28;19928;-51
2022/11/19 05:00:48;;;;;;;;;;;;;;;;;;5060726;28;20271;-52
2022/11/19 05:03:15;;;;;;;;;;;;;;;;;;5059605;28;19933;-51
2022/11/19 05:05:41;;;;;;;;;;;;;;;;;;5060101;28;19929;-52
2022/11/19 05:08:08;;;;;;;;;;;;;;;;;;5060428;28;19947;-52
2022/11/19 05:10:34;;;;;;;;;;;;;;;;;;5060073;28;20241;-50
2022/11/19 05:13:01;;;;;;;;;;;;;;;;;;5059943;28;19972;-51
2022/11/19 05:15:28;;;;;;;;;;;;;;;;;;5059621;28;19947;-51
2022/11/19 05:17:55;;;;;;;;;;;;;;;;;;5059369;28;19924;-51
2022/11/19 05:20:22;;;;;;;;;;;;;;;;;;5060124;28;20328;-50
2022/11/19 05:22:48;;;;;;;;;;;;;;;;;;5059203;28;19963;-53
2022/11/19 05:25:15;;;;;;;;;;;;;;;;;;5059927;28;19925;-52
2022/11/19 05:27:41;;;;;;;;;;;;;;;;;;5059227;28;19929;-53
2022/11/19 05:30:08;;;;;;;;;;;;;;;;;;5059959;28;19932;-51
2022/11/19 05:32:36;;;;;;;;;;;;;;;;;;5059759;28;19970;-49
2022/11/19 05:35:03;;;;;;;;;;;;;;;;;;5058086;28;19992;-50
2022/11/19 05:37:29;;;;;;;;;;;;;;;;;;5058635;28;20392;-53
2022/11/19 05:39:56;;;;;;;;;;;;;;;;;;5058982;28;19933;-51
2022/11/19 05:42:23;;;;;;;;;;;;;;;;;;5059667;28;19935;-51
2022/11/19 05:44:49;;;;;;;;;;;;;;;;;;5059119;28;19924;-51
2022/11/19 05:47:16;;;;;;;;;;;;;;;;;;5059018;28;19925;-51
2022/11/19 05:49:44;;;;;;;;;;;;;;;;;;5058740;28;19951;-53
2022/11/19 05:52:10;;;;;;;;;;;;;;;;;;5057056;28;19952;-49
2022/11/19 05:54:37;;;;;;;;;;;;;;;;;;5058996;28;19929;-49
2022/11/19 05:57:04;;;;;;;;;;;;;;;;;;5057849;28;19925;-50
2022/11/19 05:59:31;;;;;;;;;;;;;;;;;;5058633;28;19988;-50
2022/11/19 06:01:57;;;;;;;;;;;;;;;;;;5058685;28;19932;-49
2022/11/19 06:04:24;;;;;;;;;;;;;;;;;;5058474;28;19931;-49
2022/11/19 06:06:52;;;;;;;;;;;;;;;;;;5059909;28;19944;-50
2022/11/19 06:09:18;;;;;;;;;;;;;;;;;;5058172;28;19924;-49
2022/11/19 06:11:49;;;;;;;;;;;;;;;;;;5058232;28;19924;-54
2022/11/19 06:14:16;;;;;;;;;;;;;;;;;;5057174;28;20024;-51
2022/11/19 06:16:42;;;;;;;;;;;;;;;;;;5058223;28;21351;-49
2022/11/19 06:19:09;;;;;;;;;;;;;;;;;;5058847;28;20378;-51
2022/11/19 06:21:36;;;;;;;;;;;;;;;;;;5058210;28;19925;-50
2022/11/19 06:24:04;;;;;;;;;;;;;;;;;;5059072;28;19932;-53
2022/11/19 06:26:30;;;;;;;;;;;;;;;;;;5056583;28;19925;-50
2022/11/19 06:28:57;;;;;;;;;;;;;;;;;;5057827;28;20370;-52
2022/11/19 06:31:24;;;;;;;;;;;;;;;;;;5058085;28;19936;-55
2022/11/19 06:33:52;;;;;;;;;;;;;;;;;;5058778;28;20374;-53
2022/11/19 06:36:18;;;;;;;;;;;;;;;;;;5058585;28;19925;-49
2022/11/19 06:38:45;;;;;;;;;;;;;;;;;;5058166;28;19954;-49
2022/11/19 06:41:13;;;;;;;;;;;;;;;;;;5056603;28;19925;-52
2022/11/19 06:43:40;;;;;;;;;;;;;;;;;;5057782;28;19996;-48
2022/11/19 06:46:06;;;;;;;;;;;;;;;;;;5058153;28;19947;-54
2022/11/19 06:48:33;;;;;;;;;;;;;;;;;;5057372;28;19929;-50
2022/11/19 06:51:01;;;;;;;;;;;;;;;;;;5058105;28;19925;-54
2022/11/19 06:53:28;;;;;;;;;;;;;;;;;;5057707;28;19967;-49
2022/11/19 06:55:57;;;;;;;;;;;;;;;;;;5058524;28;19924;-50
2022/11/19 06:58:25;;;;;;;;;;;;;;;;;;5058240;28;20035;-54
2022/11/19 07:00:52;;;;;;;;;;;;;;;;;;5058378;28;19978;-50
2022/11/19 07:03:18;;;;;;;;;;;;;;;;;;5058095;28;19929;-49
2022/11/19 07:05:46;;;;;;;;;;;;;;;;;;5058119;28;19924;-52
2022/11/19 07:08:13;;;;;;;;;;;;;;;;;;5057838;28;19925;-52
2022/11/19 07:10:39;;;;;;;;;;;;;;;;;;5058044;28;20026;-53
2022/11/19 07:13:06;;;;;;;;;;;;;;;;;;5057171;28;20336;-53
2022/11/19 07:15:34;;;;;;;;;;;;;;;;;;5058118;28;19940;-53
2022/11/19 07:18:00;;;;;;;;;;;;;;;;;;5057655;28;19928;-52
2022/11/19 07:20:27;;;;;;;;;;;;;;;;;;5057667;28;19925;-51
2022/11/19 07:22:53;;;;;;;;;;;;;;;;;;5057440;28;19924;-55
2022/11/19 07:25:20;;;;;;;;;;;;;;;;;;5057997;28;20347;-52
2022/11/19 07:27:47;;;;;;;;;;;;;;;;;;5057441;28;19979;-52
2022/11/19 07:30:13;;;;;;;;;;;;;;;;;;5058217;28;19924;-50
2022/11/19 07:32:42;;;;;;;;;;;;;;;;;;5058973;28;20289;-51
2022/11/19 07:35:09;;;;;;;;;;;;;;;;;;5057096;28;19932;-52
2022/11/19 07:37:36;;;;;;;;;;;;;;;;;;5057351;28;19925;-53
2022/11/19 07:40:03;;;;;;;;;;;;;;;;;;5056676;28;20344;-55
2022/11/19 07:45:13;;;;;;;;;;;;;;;;;;5056244;28;19971;-52
2022/11/19 07:47:39;;;;;;;;;;;;;;;;;;5057286;28;19925;-50
2022/11/19 07:50:08;;;;;;;;;;;;;;;;;;5057801;28;19947;-51
2022/11/19 07:52:35;;;;;;;;;;;;;;;;;;5057601;28;19924;-54
2022/11/19 07:55:01;;;;;;;;;;;;;;;;;;5056381;28;20344;-53
2022/11/19 07:57:28;;;;;;;;;;;;;;;;;;5057902;28;19967;-49
2022/11/19 07:59:54;;;;;;;;;;;;;;;;;;5059028;28;19978;-51
2022/11/19 08:02:21;;;;;;;;;;;;;;;;;;5061953;28;19960;-53
2022/11/19 08:04:47;;;;;;;;;;;;;;;;;;5045231;28;19925;-50
2022/11/19 08:07:16;;;;;;;;;;;;;;;;;;5060317;28;19932;-50
2022/11/19 08:09:42;;;;;;;;;;;;;;;;;;5060184;28;19924;-50
2022/11/19 08:12:09;;;;;;;;;;;;;;;;;;5059822;28;19929;-50
2022/11/19 08:14:35;;;;;;;;;;;;;;;;;;5060415;28;19928;-52
2022/11/19 08:19:45;;;;;;;;;;;;;;;;;;5060407;28;19971;-53
2022/11/19 08:22:12;;;;;;;;;;;;;;;;;;5059646;28;19925;-52
2022/11/19 08:24:40;;;;;;;;;;;;;;;;;;5059572;28;20000;-53
2022/11/19 08:27:06;;;;;;;;;;;;;;;;;;5059931;28;19983;-50
2022/11/19 08:29:33;;;;;;;;;;;;;;;;;;5060077;28;19928;-50
2022/11/19 08:31:59;;;;;;;;;;;;;;;;;;5059986;28;19929;-50
2022/11/19 08:34:26;;;;;;;;;;;;;;;;;;5059810;28;19929;-53
2022/11/19 08:36:52;;;;;;;;;;;;;;;;;;5059294;28;19932;-53
2022/11/19 08:39:19;;;;;;;;;;;;;;;;;;5061660;28;19951;-54
2022/11/19 08:44:31;;;;;;;;;;;;;;;;;;5062555;28;19955;-51
2022/11/19 08:46:57;;;;;;;;;;;;;;;;;;5063285;28;20377;-52
2022/11/19 08:49:24;;;;;;;;;;;;;;;;;;5063097;28;20402;-51
2022/11/19 08:51:50;;;;;;;;;;;;;;;;;;5063506;28;19924;-51
2022/11/19 08:54:17;;;;;;;;;;;;;;;;;;5063671;28;20455;-53
2022/11/19 08:56:43;;;;;;;;;;;;;;;;;;5064081;28;19925;-50
2022/11/19 08:59:11;;;;;;;;;;;;;;;;;;5063293;28;19925;-50
2022/11/19 09:01:38;;;;;;;;;;;;;;;;;;5063001;28;19947;-50
2022/11/19 09:04:04;;;;;;;;;;;;;;;;;;5062954;28;19924;-52
2022/11/19 09:06:33;;;;;;;;;;;;;;;;;;5063443;28;19931;-53
2022/11/19 09:09:00;;;;;;;;;;;;;;;;;;5062982;28;19935;-52
2022/11/19 09:11:30;;;;;;;;;;;;;;;;;;5063422;28;20001;-52
2022/11/19 09:13:56;;;;;;;;;;;;;;;;;;5063752;28;20267;-51
2022/11/19 09:16:25;;;;;;;;;;;;;;;;;;5063785;28;19925;-51
2022/11/19 09:18:51;;;;;;;;;;;;;;;;;;5063043;28;19952;-51
2022/11/19 09:21:18;;;;;;;;;;;;;;;;;;5063592;28;19928;-53
2022/11/19 09:23:44;;;;;;;;;;;;;;;;;;5063371;28;19925;-54
2022/11/19 09:26:12;;;;;;;;;;;;;;;;;;5063576;28;19925;-50
2022/11/19 09:28:38;;;;;;;;;;;;;;;;;;5063160;28;20389;-54
2022/11/19 09:31:06;;;;;;;;;;;;;;;;;;5062971;28;19925;-52
2022/11/19 09:33:35;;;;;;;;;;;;;;;;;;5062542;28;19932;-54
2022/11/19 09:36:01;;;;;;;;;;;;;;;;;;5063237;28;19932;-54
2022/11/19 09:38:30;;;;;;;;;;;;;;;;;;5062637;28;19925;-53
2022/11/19 09:40:57;;;;;;;;;;;;;;;;;;5062865;28;19956;-52
2022/11/19 09:43:32;;;;;;;;;;;;;;;;;;5061803;28;19951;-50
2022/11/19 09:46:03;;;;;;;;;;;;;;;;;;5061289;28;19925;-52
2022/11/19 09:48:32;;;;;;;;;;;;;;;;;;5061426;28;20378;-51
2022/11/19 09:51:01;;;;;;;;;;;;;;;;;;5062445;28;19925;-57
2022/11/19 09:53:30;;;;;;;;;;;;;;;;;;5061085;28;19925;-49
2022/11/19 09:55:58;;;;;;;;;;;;;;;;;;5061363;28;19964;-53
2022/11/19 09:58:26;;;;;;;;;;;;;;;;;;5061455;28;19936;-52
2022/11/19 10:00:53;;;;;;;;;;;;;;;;;;5061512;28;19947;-53
2022/11/19 10:03:21;;;;;;;;;;;;;;;;;;5057850;28;20464;-54
2022/11/19 10:05:52;;;;;;;;;;;;;;;;;;5042126;28;19958;-52
2022/11/19 10:08:25;;;;;;;;;;;;;;;;;;5044472;28;19928;-52
2022/11/19 10:10:56;;;;;;;;;;;;;;;;;;5055335;28;19972;-54
2022/11/19 10:13:31;;;;;;;;;;;;;;;;;;5054982;28;19924;-53
2022/11/19 10:16:02;;;;;;;;;;;;;;;;;;5060906;28;19971;-51
2022/11/19 10:18:33;;;;;;;;;;;;;;;;;;5052717;28;19925;-53
2022/11/19 10:21:03;;;;;;;;;;;;;;;;;;5061777;28;19929;-53
2022/11/19 10:23:37;;;;;;;;;;;;;;;;;;5062295;28;20054;-55
2022/11/19 10:26:06;;;;;;;;;;;;;;;;;;5062153;28;19970;-55
2022/11/19 10:28:35;;;;;;;;;;;;;;;;;;5061392;28;20378;-54
2022/11/19 10:31:05;;;;;;;;;;;;;;;;;;5061193;28;19929;-51
2022/11/19 10:33:33;;;;;;;;;;;;;;;;;;5061946;28;19924;-54
2022/11/19 10:36:02;;;;;;;;;;;;;;;;;;5060943;28;19951;-54
2022/11/19 10:38:33;;;;;;;;;;;;;;;;;;5060983;28;20448;-52
2022/11/19 10:41:03;;;;;;;;;;;;;;;;;;5061507;28;20015;-54
2022/11/19 10:43:32;;;;;;;;;;;;;;;;;;5042202;28;19936;-53
2022/11/19 10:46:00;;;;;;;;;;;;;;;;;;5040926;28;20436;-50
2022/11/19 10:48:35;;;;;;;;;;;;;;;;;;5041245;28;20290;-55
2022/11/19 10:51:02;;;;;;;;;;;;;;;;;;5041641;28;19925;-53
2022/11/19 10:53:30;;;;;;;;;;;;;;;;;;5041515;28;19929;-54
2022/11/19 10:55:58;;;;;;;;;;;;;;;;;;5041063;28;19925;-53
2022/11/19 10:58:29;;;;;;;;;;;;;;;;;;5054554;28;19957;-53
2022/11/19 11:00:56;;;;;;;;;;;;;;;;;;5061395;28;19946;-55
2022/11/19 11:03:23;;;;;;;;;;;;;;;;;;5056983;28;19979;-50
2022/11/19 11:05:54;;;;;;;;;;;;;;;;;;5041090;28;20313;-51
2022/11/19 11:08:21;;;;;;;;;;;;;;;;;;5040325;28;19985;-50
2022/11/19 11:10:47;;;;;;;;;;;;;;;;;;5055430;28;19929;-53
2022/11/19 11:16:13;;;;;;;;;;;;;;;;;;5060164;28;19932;-54
2022/11/19 11:18:40;;;;;;;;;;;;;;;;;;5060438;28;20551;-51
2022/11/19 11:21:08;;;;;;;;;;;;;;;;;;5059064;28;19959;-50
2022/11/19 11:23:34;;;;;;;;;;;;;;;;;;5049382;28;19932;-63
2022/11/19 11:26:04;;;;;;;;;;;;;;;;;;5032633;28;19929;-63
2022/11/19 11:28:32;;;;;;;;;;;;;;;;;;5033357;28;19925;-64
2022/11/19 11:30:59;;;;;;;;;;;;;;;;;;5035061;28;20337;-63
2022/11/19 11:33:27;;;;;;;;;;;;;;;;;;5033414;28;20021;-61
2022/11/19 11:35:55;;;;;;;;;;;;;;;;;;5033288;28;19979;-63
2022/11/19 11:38:23;;;;;;;;;;;;;;;;;;5033364;28;19925;-59
2022/11/19 11:40:57;;;;;;;;;;;;;;;;;;5050918;28;19994;-62
2022/11/19 11:43:27;;;;;;;;;;;;;;;;;;5052804;28;19971;-59
2022/11/19 11:45:57;;;;;;;;;;;;;;;;;;5053330;28;19967;-63
2022/11/19 11:48:24;;;;;;;;;;;;;;;;;;5054063;28;19928;-57
2022/11/19 11:50:50;;;;;;;;;;;;;;;;;;5057083;28;19925;-52
2022/11/19 11:53:27;;;;;;;;;;;;;;;;;;5057190;28;19925;-53
2022/11/19 11:55:56;;;;;;;;;;;;;;;;;;5056915;28;19925;-55
2022/11/19 11:58:27;;;;;;;;;;;;;;;;;;5056357;28;19926;-50
2022/11/19 12:00:54;;;;;;;;;;;;;;;;;;5037612;28;19925;-51
2022/11/19 12:03:23;;;;;;;;;;;;;;;;;;5036273;28;19991;-50
2022/11/19 12:05:54;;;;;;;;;;;;;;;;;;5054343;28;19952;-51
2022/11/19 12:08:31;;;;;;;;;;;;;;;;;;5055815;28;19928;-53
2022/11/19 12:11:02;;;;;;;;;;;;;;;;;;5056445;28;19932;-54
2022/11/19 12:13:47;;;;;;;;;;;;;;;;;;5062963;28;20336;-51
2022/11/19 12:16:18;;;;;;;;;;;;;;;;;;5070067;28;19925;-51
2022/11/19 12:18:51;;;;;;;;;;;;;;;;;;5057046;28;19925;-54
2022/11/19 12:21:24;;;;;;;;;;;;;;;;;;5057970;28;19924;-51
2022/11/19 12:23:57;;;;;;;;;;;;;;;;;;5039797;28;20075;-52
2022/11/19 12:26:30;;;;;;;;;;;;;;;;;;5049892;28;19924;-51
2022/11/19 12:29:02;;;;;;;;;;;;;;;;;;5079275;28;19925;-51
2022/11/19 12:31:35;;;;;;;;;;;;;;;;;;5059209;28;20328;-53
2022/11/19 12:34:07;;;;;;;;;;;;;;;;;;5059343;28;19924;-52
2022/11/19 12:36:40;;;;;;;;;;;;;;;;;;5059026;28;19924;-51
2022/11/19 12:39:12;;;;;;;;;;;;;;;;;;5058985;28;19978;-54
2022/11/19 12:41:50;;;;;;;;;;;;;;;;;;5058296;28;19929;-51
2022/11/19 12:44:22;;;;;;;;;;;;;;;;;;5057106;28;19978;-51
2022/11/19 12:46:50;;;;;;;;;;;;;;;;;;5054531;28;19993;-54
2022/11/19 12:49:30;;;;;;;;;;;;;;;;;;5039114;28;19929;-55
2022/11/19 12:52:02;;;;;;;;;;;;;;;;;;5047447;28;19994;-53
2022/11/19 12:54:37;;;;;;;;;;;;;;;;;;5058706;28;19984;-52
2022/11/19 12:57:13;;;;;;;;;;;;;;;;;;5057834;28;20043;-54
2022/11/19 12:59:47;;;;;;;;;;;;;;;;;;5057055;28;19967;-55
2022/11/19 13:02:16;;;;;;;;;;;;;;;;;;5060223;28;19979;-54
2022/11/19 13:04:47;;;;;;;;;;;;;;;;;;5038688;28;19925;-51
2022/11/19 13:07:15;;;;;;;;;;;;;;;;;;5054339;28;19955;-54
2022/11/19 13:09:44;;;;;;;;;;;;;;;;;;5048287;28;19928;-54
2022/11/19 13:12:12;;;;;;;;;;;;;;;;;;5057244;28;19951;-52
2022/11/19 13:14:40;;;;;;;;;;;;;;;;;;5057907;28;19978;-54
2022/11/19 13:17:12;;;;;;;;;;;;;;;;;;5058777;28;19931;-54
2022/11/19 13:19:39;;;;;;;;;;;;;;;;;;5058222;28;19992;-54
2022/11/19 13:22:12;;;;;;;;;;;;;;;;;;5057235;28;19929;-54
2022/11/19 13:24:41;;;;;;;;;;;;;;;;;;5055208;28;19978;-52
2022/11/19 13:27:10;;;;;;;;;;;;;;;;;;5056724;28;20342;-56
2022/11/19 13:29:41;;;;;;;;;;;;;;;;;;5056227;28;20007;-53
2022/11/19 13:32:11;;;;;;;;;;;;;;;;;;5056091;28;20028;-54
2022/11/19 13:34:44;;;;;;;;;;;;;;;;;;5056457;28;19936;-54
2022/11/19 13:37:14;;;;;;;;;;;;;;;;;;5054802;28;20003;-63
2022/11/19 13:39:43;;;;;;;;;;;;;;;;;;5053514;28;19956;-52
2022/11/19 13:44:54;;;;;;;;;;;;;;;;;;5041480;28;19931;-56
2022/11/19 13:47:22;;;;;;;;;;;;;;;;;;5054760;28;19936;-52
2022/11/19 13:49:52;;;;;;;;;;;;;;;;;;5054864;28;19925;-53
2022/11/19 13:52:23;;;;;;;;;;;;;;;;;;5053511;28;19928;-52
2022/11/19 13:54:50;;;;;;;;;;;;;;;;;;5053325;28;19931;-54
2022/11/19 13:57:25;;;;;;;;;;;;;;;;;;5054178;28;19974;-52
2022/11/19 13:59:56;;;;;;;;;;;;;;;;;;5054191;28;20006;-53
2022/11/19 14:02:50;;;;;;;;;;;;;;;;;;5054495;28;19936;-52
2022/11/19 14:05:31;;;;;;;;;;;;;;;;;;5054268;28;20431;-54
2022/11/19 14:08:11;;;;;;;;;;;;;;;;;;5051477;28;19933;-51
2022/11/19 14:10:40;;;;;;;;;;;;;;;;;;5053983;28;19925;-53
2022/11/19 14:13:14;;;;;;;;;;;;;;;;;;5061427;22;19971;-80
2022/11/19 14:27:29;;;;;;;;;;;;;;;;;;5016128;28;20252;-79
2022/11/19 14:29:57;;;;;;;;;;;;;;;;;;5016173;28;20024;-80
2022/11/19 14:32:31;;;;;;;;;;;;;;;;;;5016482;28;19925;-79
2022/11/19 14:35:22;;;;;;;;;;;;;;;;;;5016050;28;20362;-80
2022/11/19 14:37:50;;;;;;;;;;;;;;;;;;5015350;28;20008;-81
2022/11/19 14:40:19;;;;;;;;;;;;;;;;;;5016143;28;19926;-80
2022/11/19 14:46:04;;;;;;;;;;;;;;;;;;5018110;28;20295;-80
2022/11/19 14:48:33;;;;;;;;;;;;;;;;;;5016637;28;19948;-79
2022/11/19 14:51:03;;;;;;;;;;;;;;;;;;5016045;28;19949;-80
2022/11/19 14:53:30;;;;;;;;;;;;;;;;;;5015741;28;20012;-80
2022/11/19 14:56:10;;;;;;;;;;;;;;;;;;5015508;28;20363;-80
2022/11/19 14:58:36;;;;;;;;;;;;;;;;;;5015029;28;19925;-79
2022/11/19 15:01:07;;;;;;;;;;;;;;;;;;5015121;28;19992;-80
2022/11/19 15:03:36;;;;;;;;;;;;;;;;;;5015221;28;19932;-80
2022/11/19 15:06:05;;;;;;;;;;;;;;;;;;5016447;28;19938;-80
2022/11/19 15:08:45;;;;;;;;;;;;;;;;;;5019891;28;19926;-80
2022/11/19 15:11:12;;;;;;;;;;;;;;;;;;5018952;28;19968;-81
2022/11/19 15:13:40;;;;;;;;;;;;;;;;;;5020492;28;19935;-81
2022/11/19 15:16:08;;;;;;;;;;;;;;;;;;5019249;28;20380;-81
2022/11/19 15:18:56;;;;;;;;;;;;;;;;;;5014231;28;19925;-80
2022/11/19 15:21:42;;;;;;;;;;;;;;;;;;5014123;28;20032;-80
2022/11/19 15:24:14;;;;;;;;;;;;;;;;;;5016199;28;19938;-79
2022/11/19 15:26:45;;;;;;;;;;;;;;;;;;5015907;28;20031;-80
2022/11/19 15:29:16;;;;;;;;;;;;;;;;;;5016356;28;20381;-79
2022/11/19 15:31:49;;;;;;;;;;;;;;;;;;5016715;28;20028;-80
2022/11/19 15:34:21;;;;;;;;;;;;;;;;;;5015804;28;20064;-80
2022/11/19 15:36:51;;;;;;;;;;;;;;;;;;5014702;28;19939;-80
2022/11/19 15:39:22;;;;;;;;;;;;;;;;;;5015235;28;20631;-80
2022/11/19 15:42:00;;;;;;;;;;;;;;;;;;5015641;28;19925;-80
2022/11/19 15:44:28;;;;;;;;;;;;;;;;;;5015280;28;20414;-80
2022/11/19 15:46:57;;;;;;;;;;;;;;;;;;5015320;28;20004;-80
2022/11/19 15:49:25;;;;;;;;;;;;;;;;;;5020554;28;20052;-80
2022/11/19 15:52:04;;;;;;;;;;;;;;;;;;5021251;28;19972;-78
2022/11/19 15:54:32;;;;;;;;;;;;;;;;;;5031087;28;19965;-79
2022/11/19 15:57:00;;;;;;;;;;;;;;;;;;5027621;28;20183;-80
2022/11/19 15:59:27;;;;;;;;;;;;;;;;;;5020344;28;20075;-80
2022/11/19 16:01:59;;;;;;;;;;;;;;;;;;5020268;28;19926;-80
2022/11/19 16:04:30;;;;;;;;;;;;;;;;;;5019173;28;19925;-80
2022/11/19 16:06:56;;;;;;;;;;;;;;;;;;5019572;28;20415;-79
2022/11/19 16:09:25;;;;;;;;;;;;;;;;;;5019354;28;19925;-79
2022/11/19 16:17:34;;;;;;;;;;;;;;;;;;5018487;28;19936;-79
2022/11/19 16:20:21;;;;;;;;;;;;;;;;;;5018227;28;19925;-79
2022/11/19 16:22:50;;;;;;;;;;;;;;;;;;5018119;28;19926;-80
2022/11/19 16:25:24;;;;;;;;;;;;;;;;;;5018020;28;19968;-79
2022/11/19 16:27:54;;;;;;;;;;;;;;;;;;5017678;28;20029;-78
2022/11/19 16:30:22;;;;;;;;;;;;;;;;;;5017889;28;19985;-79
2022/11/19 16:32:49;;;;;;;;;;;;;;;;;;5018297;28;20520;-79
2022/11/19 16:35:20;;;;;;;;;;;;;;;;;;5018316;28;20277;-79
2022/11/19 16:37:47;;;;;;;;;;;;;;;;;;5018245;28;20527;-79
2022/11/19 16:40:14;;;;;;;;;;;;;;;;;;5019132;28;20016;-79
2022/11/19 16:42:42;;;;;;;;;;;;;;;;;;5020022;28;20017;-80
2022/11/19 16:45:14;;;;;;;;;;;;;;;;;;5020287;28;19925;-79
2022/11/19 16:47:50;;;;;;;;;;;;;;;;;;5019928;28;19973;-79
2022/11/19 16:50:25;;;;;;;;;;;;;;;;;;5018193;28;19940;-80
2022/11/19 16:52:52;;;;;;;;;;;;;;;;;;5017834;28;19926;-79
2022/11/19 16:55:42;;;;;;;;;;;;;;;;;;5017195;28;19930;-81
2022/11/19 16:58:27;;;;;;;;;;;;;;;;;;5017725;28;19932;-81
2022/11/19 17:00:58;;;;;;;;;;;;;;;;;;5018386;28;19975;-79
2022/11/19 17:03:38;;;;;;;;;;;;;;;;;;5017729;28;19926;-81
2022/11/19 17:06:06;;;;;;;;;;;;;;;;;;5017341;28;19926;-82
2022/11/19 17:08:33;;;;;;;;;;;;;;;;;;5018164;28;19926;-85
2022/11/19 17:12:16;;;;;;;;;;;;;;;;;;5018630;28;19953;-84
2022/11/19 17:14:04;;;;;;;;;;;;;;;;;;5022036;28;19935;-87
2022/11/19 17:16:30;;;;;;;;;;;;;;;;;;5027142;28;19936;-87
2022/11/19 17:18:57;;;;;;;;;;;;;;;;;;5022512;28;19926;-83
2022/11/19 17:21:25;;;;;;;;;;;;;;;;;;5019606;28;19984;-86
2022/11/19 17:23:52;;;;;;;;;;;;;;;;;;5018860;28;20012;-88
2022/11/19 17:26:20;;;;;;;;;;;;;;;;;;5017537;28;19925;-85
2022/11/19 17:28:48;;;;;;;;;;;;;;;;;;5018925;28;20019;-85
2022/11/19 17:31:17;;;;;;;;;;;;;;;;;;5017163;28;19949;-87
2022/11/19 17:33:54;;;;;;;;;;;;;;;;;;5018753;28;20431;-83
2022/11/19 17:36:21;;;;;;;;;;;;;;;;;;5017330;28;20032;-82
2022/11/19 17:38:48;;;;;;;;;;;;;;;;;;5020981;28;19925;-83
2022/11/19 17:41:15;;;;;;;;;;;;;;;;;;5019760;28;20016;-81
2022/11/19 17:46:28;;;;;;;;;;;;;;;;;;5017192;28;19992;-81
2022/11/19 17:48:55;;;;;;;;;;;;;;;;;;5019093;28;19973;-83
2022/11/19 17:51:23;;;;;;;;;;;;;;;;;;5018405;28;20309;-82
2022/11/19 17:53:50;;;;;;;;;;;;;;;;;;5017892;28;20012;-80
2022/11/19 17:56:18;;;;;;;;;;;;;;;;;;5017688;28;19947;-81
2022/11/19 17:58:44;;;;;;;;;;;;;;;;;;5018728;28;19926;-82